createdAt,value
2023-04-19T00:00:54.523Z,24.80
2023-04-19T00:01:54.754Z,23.80
2023-04-19T00:02:54.753Z,25.40
2023-04-19T00:03:54.558Z,21.60
2023-04-19T00:04:54.549Z,22.80
2023-04-19T00:05:54.492Z,22.60
2023-04-19T00:06:54.472Z,23.50
2023-04-19T00:07:54.461Z,23.20
2023-04-19T00:08:54.449Z,23.70
2023-04-19T00:09:54.435Z,22.70
2023-04-19T00:10:54.426Z,22.80
2023-04-19T00:11:54.424Z,22.20
2023-04-19T00:12:54.388Z,23.70
2023-04-19T00:13:54.385Z,21.60
2023-04-19T00:14:54.374Z,22.30
2023-04-19T00:15:54.365Z,23.00
2023-04-19T00:16:54.387Z,20.90
2023-04-19T00:17:54.600Z,24.00
2023-04-19T00:18:54.334Z,21.00
2023-04-19T00:19:54.334Z,23.20
2023-04-19T00:20:54.307Z,21.90
2023-04-19T00:21:54.314Z,22.90
2023-04-19T00:22:54.310Z,22.90
2023-04-19T00:23:54.276Z,22.70
2023-04-19T00:24:54.289Z,21.20
2023-04-19T00:25:54.256Z,22.40
2023-04-19T00:26:54.263Z,23.90
2023-04-19T00:27:54.234Z,22.80
2023-04-19T00:28:54.221Z,24.10
2023-04-19T00:29:54.228Z,23.10
2023-04-19T00:30:54.228Z,22.70
2023-04-19T00:31:54.229Z,24.90
2023-04-19T00:32:54.233Z,25.00
2023-04-19T00:33:54.177Z,23.80
2023-04-19T00:34:54.167Z,22.40
2023-04-19T00:35:54.153Z,23.40
2023-04-19T00:36:54.157Z,25.20
2023-04-19T00:37:54.129Z,25.40
2023-04-19T00:38:54.121Z,24.70
2023-04-19T00:39:54.125Z,23.60
2023-04-19T00:40:54.094Z,24.40
2023-04-19T00:41:54.106Z,25.90
2023-04-19T00:42:54.076Z,22.60
2023-04-19T00:43:54.064Z,24.90
2023-04-19T00:44:54.054Z,24.50
2023-04-19T00:45:54.088Z,23.80
2023-04-19T00:46:54.046Z,24.00
2023-04-19T00:47:54.075Z,26.70
2023-04-19T00:48:54.029Z,25.50
2023-04-19T00:49:54.012Z,26.60
2023-04-19T00:50:54.034Z,21.90
2023-04-19T00:51:53.998Z,23.00
2023-04-19T00:52:53.978Z,24.10
2023-04-19T00:53:53.972Z,25.60
2023-04-19T00:54:53.969Z,22.70
2023-04-19T00:55:53.944Z,24.30
2023-04-19T00:56:54.089Z,24.20
2023-04-19T00:57:53.927Z,25.50
2023-04-19T00:58:53.923Z,23.90
2023-04-19T00:59:53.904Z,24.30
2023-04-19T01:00:53.889Z,22.60
2023-04-19T01:01:53.918Z,21.80
2023-04-19T01:02:54.041Z,25.40
2023-04-19T01:03:53.962Z,24.30
2023-04-19T01:04:53.848Z,24.10
2023-04-19T01:05:53.848Z,23.00
2023-04-19T01:06:53.829Z,22.80
2023-04-19T01:07:53.830Z,22.60
2023-04-19T01:08:53.807Z,23.00
2023-04-19T01:09:53.795Z,22.20
2023-04-19T01:10:53.778Z,22.50
2023-04-19T01:11:53.775Z,23.90
2023-04-19T01:12:53.780Z,21.90
2023-04-19T01:13:53.753Z,25.60
2023-04-19T01:14:53.741Z,23.60
2023-04-19T01:15:53.757Z,24.50
2023-04-19T01:16:53.717Z,23.20
2023-04-19T01:17:53.834Z,23.20
2023-04-19T01:18:53.694Z,22.60
2023-04-19T01:19:53.688Z,21.70
2023-04-19T01:20:53.698Z,21.70
2023-04-19T01:21:53.707Z,26.10
2023-04-19T01:22:53.670Z,23.00
2023-04-19T01:23:53.651Z,23.40
2023-04-19T01:24:53.634Z,23.20
2023-04-19T01:25:53.629Z,24.70
2023-04-19T01:26:53.612Z,20.60
2023-04-19T01:27:53.615Z,24.70
2023-04-19T01:28:53.658Z,23.10
2023-04-19T01:29:53.583Z,21.00
2023-04-19T01:30:53.579Z,22.70
2023-04-19T01:31:53.756Z,24.50
2023-04-19T01:32:53.606Z,23.70
2023-04-19T01:33:53.552Z,24.00
2023-04-19T01:34:53.562Z,23.50
2023-04-19T01:35:53.522Z,22.00
2023-04-19T01:36:53.546Z,23.40
2023-04-19T01:37:53.520Z,21.80
2023-04-19T01:38:53.486Z,22.10
2023-04-19T01:39:53.480Z,21.20
2023-04-19T01:40:53.468Z,20.80
2023-04-19T01:41:53.463Z,22.60
2023-04-19T01:42:53.465Z,20.10
2023-04-19T01:43:53.444Z,20.90
2023-04-19T01:44:53.431Z,21.90
2023-04-19T01:45:53.425Z,21.40
2023-04-19T01:46:53.453Z,22.00
2023-04-19T01:47:53.461Z,23.50
2023-04-19T01:48:53.390Z,21.70
2023-04-19T01:49:53.390Z,21.70
2023-04-19T01:50:53.374Z,21.20
2023-04-19T01:51:53.386Z,21.30
2023-04-19T01:52:53.361Z,21.80
2023-04-19T01:53:53.341Z,22.50
2023-04-19T01:54:53.335Z,22.20
2023-04-19T01:55:53.332Z,21.50
2023-04-19T01:56:53.309Z,18.00
2023-04-19T01:57:54.596Z,18.20
2023-04-19T01:58:53.299Z,21.80
2023-04-19T01:59:53.314Z,21.10
2023-04-19T02:00:53.387Z,18.90
2023-04-19T02:01:53.327Z,18.80
2023-04-19T02:02:53.392Z,21.10
2023-04-19T02:03:53.348Z,20.20
2023-04-19T02:04:53.250Z,24.10
2023-04-19T02:05:53.224Z,20.70
2023-04-19T02:06:53.214Z,25.40
2023-04-19T02:07:53.213Z,21.00
2023-04-19T02:08:53.189Z,20.10
2023-04-19T02:09:53.206Z,23.20
2023-04-19T02:10:53.172Z,21.90
2023-04-19T02:11:53.163Z,21.30
2023-04-19T02:12:53.162Z,20.70
2023-04-19T02:13:53.181Z,21.20
2023-04-19T02:14:53.127Z,21.00
2023-04-19T02:15:53.139Z,22.00
2023-04-19T02:16:53.300Z,22.30
2023-04-19T02:17:53.212Z,21.60
2023-04-19T02:18:53.084Z,23.20
2023-04-19T02:19:53.086Z,19.10
2023-04-19T02:20:53.064Z,20.30
2023-04-19T02:21:53.061Z,22.00
2023-04-19T02:22:53.056Z,19.10
2023-04-19T02:23:53.032Z,20.70
2023-04-19T02:24:53.043Z,20.90
2023-04-19T02:25:53.018Z,21.00
2023-04-19T02:26:54.158Z,21.10
2023-04-19T02:27:54.160Z,20.40
2023-04-19T02:28:54.147Z,23.30
2023-04-19T02:29:54.128Z,21.20
2023-04-19T02:30:54.114Z,21.40
2023-04-19T02:31:54.134Z,19.80
2023-04-19T02:32:54.120Z,23.60
2023-04-19T02:33:54.094Z,21.60
2023-04-19T02:34:54.067Z,20.00
2023-04-19T02:35:54.060Z,21.20
2023-04-19T02:36:54.075Z,21.70
2023-04-19T02:37:54.056Z,20.40
2023-04-19T02:38:54.031Z,20.20
2023-04-19T02:39:54.022Z,20.90
2023-04-19T02:40:54.028Z,22.10
2023-04-19T02:41:54.062Z,19.40
2023-04-19T02:42:54.003Z,18.90
2023-04-19T02:43:53.975Z,18.10
2023-04-19T02:44:54.004Z,17.20
2023-04-19T02:45:54.018Z,17.30
2023-04-19T02:46:54.962Z,16.50
2023-04-19T02:47:54.035Z,17.20
2023-04-19T02:48:53.947Z,14.70
2023-04-19T02:49:53.922Z,17.70
2023-04-19T02:50:53.932Z,14.50
2023-04-19T02:51:53.894Z,13.90
2023-04-19T02:52:53.916Z,12.70
2023-04-19T02:53:53.899Z,12.50
2023-04-19T02:54:53.874Z,12.60
2023-04-19T02:55:53.892Z,11.70
2023-04-19T02:56:53.883Z,11.60
2023-04-19T02:57:53.869Z,10.80
2023-04-19T02:58:53.843Z,8.70
2023-04-19T02:59:53.849Z,9.10
2023-04-19T03:00:53.871Z,8.50
2023-04-19T03:01:53.799Z,7.90
2023-04-19T03:02:54.003Z,8.30
2023-04-19T03:03:53.865Z,8.00
2023-04-19T03:04:53.769Z,7.20
2023-04-19T03:05:53.767Z,7.50
2023-04-19T03:06:53.757Z,6.50
2023-04-19T03:07:53.761Z,7.90
2023-04-19T03:08:53.776Z,8.90
2023-04-19T03:09:53.735Z,9.40
2023-04-19T03:10:53.710Z,8.30
2023-04-19T03:11:53.705Z,7.80
2023-04-19T03:12:53.714Z,8.00
2023-04-19T03:13:53.697Z,7.00
2023-04-19T03:14:53.751Z,8.80
2023-04-19T03:15:53.724Z,6.40
2023-04-19T03:16:53.655Z,7.70
2023-04-19T03:17:53.680Z,8.40
2023-04-19T03:18:53.644Z,7.90
2023-04-19T03:19:53.618Z,8.50
2023-04-19T03:20:53.599Z,7.20
2023-04-19T03:21:53.609Z,8.50
2023-04-19T03:22:53.609Z,8.10
2023-04-19T03:23:53.599Z,7.80
2023-04-19T03:24:53.565Z,8.30
2023-04-19T03:25:53.567Z,6.80
2023-04-19T03:26:53.541Z,8.30
2023-04-19T03:27:53.543Z,8.50
2023-04-19T03:28:53.514Z,5.80
2023-04-19T03:29:53.509Z,7.10
2023-04-19T03:30:53.523Z,7.80
2023-04-19T03:31:53.485Z,7.90
2023-04-19T03:32:53.538Z,6.50
2023-04-19T03:33:53.488Z,7.20
2023-04-19T03:34:53.446Z,7.00
2023-04-19T03:35:53.437Z,6.90
2023-04-19T03:36:53.446Z,7.10
2023-04-19T03:37:53.436Z,5.60
2023-04-19T03:38:53.427Z,5.80
2023-04-19T03:39:53.391Z,7.40
2023-04-19T03:40:53.390Z,7.20
2023-04-19T03:41:53.380Z,5.20
2023-04-19T03:42:53.388Z,5.40
2023-04-19T03:43:53.397Z,5.60
2023-04-19T03:44:53.340Z,5.30
2023-04-19T03:45:53.366Z,4.80
2023-04-19T03:46:53.319Z,5.80
2023-04-19T03:47:53.357Z,5.30
2023-04-19T03:48:53.330Z,5.20
2023-04-19T03:49:53.317Z,5.80
2023-04-19T03:50:53.297Z,5.60
2023-04-19T03:51:53.294Z,6.20
2023-04-19T03:52:53.290Z,5.70
2023-04-19T03:53:53.271Z,6.30
2023-04-19T03:54:53.249Z,5.10
2023-04-19T03:55:53.238Z,4.70
2023-04-19T03:56:53.246Z,5.60
2023-04-19T03:57:53.237Z,5.30
2023-04-19T03:58:53.218Z,4.30
2023-04-19T03:59:53.205Z,6.30
2023-04-19T04:00:53.188Z,5.10
2023-04-19T04:01:53.199Z,5.00
2023-04-19T04:02:53.374Z,5.00
2023-04-19T04:03:53.594Z,5.40
2023-04-19T04:04:53.241Z,6.30
2023-04-19T04:05:53.129Z,5.20
2023-04-19T04:06:53.124Z,4.60
2023-04-19T04:07:53.115Z,7.30
2023-04-19T04:08:53.129Z,6.90
2023-04-19T04:09:53.080Z,7.20
2023-04-19T04:10:53.090Z,5.70
2023-04-19T04:11:53.071Z,5.60
2023-04-19T04:12:53.066Z,5.90
2023-04-19T04:13:53.062Z,5.20
2023-04-19T04:14:53.042Z,5.70
2023-04-19T04:15:53.050Z,8.60
2023-04-19T04:16:53.039Z,5.80
2023-04-19T04:17:53.064Z,5.20
2023-04-19T04:18:54.016Z,4.80
2023-04-19T04:19:52.993Z,4.70
2023-04-19T04:20:52.980Z,5.20
2023-04-19T04:21:52.974Z,5.60
2023-04-19T04:22:52.947Z,6.00
2023-04-19T04:23:52.951Z,6.70
2023-04-19T04:24:52.930Z,4.40
2023-04-19T04:25:52.946Z,6.40
2023-04-19T04:26:52.923Z,5.60
2023-04-19T04:27:52.954Z,6.10
2023-04-19T04:28:52.918Z,4.90
2023-04-19T04:29:52.897Z,5.60
2023-04-19T04:30:53.875Z,5.40
2023-04-19T04:31:52.966Z,5.20
2023-04-19T04:32:52.925Z,4.80
2023-04-19T04:33:52.889Z,5.50
2023-04-19T04:34:52.843Z,5.00
2023-04-19T04:35:52.865Z,6.90
2023-04-19T04:36:52.834Z,6.10
2023-04-19T04:37:52.827Z,4.60
2023-04-19T04:38:52.833Z,5.90
2023-04-19T04:39:52.816Z,4.80
2023-04-19T04:40:52.805Z,4.40
2023-04-19T04:41:52.798Z,5.60
2023-04-19T04:42:52.772Z,4.70
2023-04-19T04:44:08.250Z,5.00
2023-04-19T04:44:54.754Z,6.60
2023-04-19T04:45:52.795Z,5.40
2023-04-19T04:46:52.731Z,4.70
2023-04-19T04:47:52.879Z,6.80
2023-04-19T04:48:52.720Z,5.30
2023-04-19T04:49:52.711Z,4.60
2023-04-19T04:50:52.733Z,6.00
2023-04-19T04:51:52.729Z,5.60
2023-04-19T04:52:52.673Z,6.90
2023-04-19T04:53:52.673Z,5.80
2023-04-19T04:54:52.664Z,6.50
2023-04-19T04:55:52.660Z,5.10
2023-04-19T04:56:52.691Z,5.30
2023-04-19T04:57:52.628Z,8.20
2023-04-19T04:58:52.615Z,4.50
2023-04-19T04:59:52.630Z,5.00
2023-04-19T05:00:52.647Z,5.00
2023-04-19T05:01:52.585Z,5.80
2023-04-19T05:02:52.688Z,4.70
2023-04-19T05:03:52.578Z,6.70
2023-04-19T05:04:52.589Z,6.10
2023-04-19T05:05:52.544Z,5.00
2023-04-19T05:06:52.546Z,5.80
2023-04-19T05:07:52.531Z,5.80
2023-04-19T05:08:52.501Z,6.20
2023-04-19T05:09:52.491Z,5.70
2023-04-19T05:10:52.484Z,5.00
2023-04-19T05:11:52.466Z,6.40
2023-04-19T05:12:52.492Z,6.90
2023-04-19T05:13:53.468Z,7.80
2023-04-19T05:14:52.434Z,6.00
2023-04-19T05:15:52.474Z,5.70
2023-04-19T05:16:52.436Z,7.00
2023-04-19T05:17:52.570Z,5.60
2023-04-19T05:18:52.400Z,5.50
2023-04-19T05:19:52.425Z,6.30
2023-04-19T05:20:52.373Z,6.90
2023-04-19T05:21:52.369Z,7.00
2023-04-19T05:22:52.374Z,6.60
2023-04-19T05:23:52.358Z,7.20
2023-04-19T05:24:52.353Z,7.10
2023-04-19T05:25:52.329Z,6.30
2023-04-19T05:26:52.313Z,6.70
2023-04-19T05:27:52.311Z,6.80
2023-04-19T05:28:52.313Z,6.40
2023-04-19T05:29:52.284Z,8.40
2023-04-19T05:30:52.277Z,7.40
2023-04-19T05:31:52.364Z,6.30
2023-04-19T05:32:53.313Z,7.20
2023-04-19T05:33:52.269Z,7.50
2023-04-19T05:34:52.244Z,6.80
2023-04-19T05:35:52.219Z,6.80
2023-04-19T05:36:52.209Z,7.80
2023-04-19T05:37:52.204Z,5.80
2023-04-19T05:38:52.243Z,7.70
2023-04-19T05:39:52.205Z,6.80
2023-04-19T05:40:52.185Z,5.50
2023-04-19T05:41:52.152Z,7.60
2023-04-19T05:42:52.136Z,6.00
2023-04-19T05:43:53.166Z,7.20
2023-04-19T05:44:52.129Z,6.70
2023-04-19T05:45:52.189Z,8.00
2023-04-19T05:46:52.109Z,7.00
2023-04-19T05:47:52.143Z,8.10
2023-04-19T05:48:52.121Z,7.30
2023-04-19T05:49:52.087Z,6.60
2023-04-19T05:50:52.069Z,7.30
2023-04-19T05:51:52.052Z,7.80
2023-04-19T05:52:52.038Z,6.60
2023-04-19T05:53:52.672Z,8.00
2023-04-19T05:54:52.018Z,8.10
2023-04-19T05:55:53.037Z,7.30
2023-04-19T05:56:52.020Z,8.10
2023-04-19T05:57:51.989Z,7.60
2023-04-19T05:58:51.989Z,8.00
2023-04-19T05:59:52.002Z,7.40
2023-04-19T06:00:51.986Z,8.30
2023-04-19T06:01:51.967Z,9.40
2023-04-19T06:02:53.086Z,8.30
2023-04-19T06:03:52.295Z,7.70
2023-04-19T06:04:51.959Z,9.40
2023-04-19T06:05:52.064Z,11.30
2023-04-19T06:06:51.949Z,8.90
2023-04-19T06:07:55.621Z,8.30
2023-04-19T06:08:54.807Z,9.70
2023-04-19T06:09:52.963Z,8.80
2023-04-19T06:10:55.759Z,8.60
2023-04-19T06:11:53.959Z,9.40
2023-04-19T06:12:51.936Z,8.50
2023-04-19T06:13:52.040Z,9.40
2023-04-19T06:14:52.060Z,7.60
2023-04-19T06:15:52.017Z,7.60
2023-04-19T06:16:51.955Z,7.40
2023-04-19T06:17:52.006Z,10.20
2023-04-19T06:18:51.847Z,8.40
2023-04-19T06:19:51.825Z,8.70
2023-04-19T06:20:51.793Z,9.70
2023-04-19T06:21:51.830Z,9.60
2023-04-19T06:22:51.860Z,10.10
2023-04-19T06:23:51.899Z,10.60
2023-04-19T06:24:51.806Z,9.40
2023-04-19T06:25:51.821Z,9.20
2023-04-19T06:26:51.781Z,10.20
2023-04-19T06:27:51.799Z,10.60
2023-04-19T06:28:51.719Z,9.80
2023-04-19T06:29:51.687Z,10.60
2023-04-19T06:30:51.783Z,10.60
2023-04-19T06:31:51.829Z,11.20
2023-04-19T06:32:51.741Z,10.80
2023-04-19T06:33:51.710Z,10.50
2023-04-19T06:34:51.719Z,9.30
2023-04-19T06:35:51.731Z,9.90
2023-04-19T06:36:51.734Z,11.80
2023-04-19T06:37:52.719Z,12.10
2023-04-19T06:38:51.682Z,10.50
2023-04-19T06:39:51.719Z,8.60
2023-04-19T06:40:51.690Z,10.70
2023-04-19T06:41:51.866Z,9.50
2023-04-19T06:42:51.742Z,12.30
2023-04-19T06:43:51.616Z,10.60
2023-04-19T06:44:51.691Z,9.90
2023-04-19T06:45:51.950Z,10.60
2023-04-19T06:46:51.673Z,10.20
2023-04-19T06:47:51.590Z,10.10
2023-04-19T06:48:51.485Z,9.70
2023-04-19T06:49:51.520Z,10.70
2023-04-19T06:50:51.444Z,8.70
2023-04-19T06:51:51.448Z,10.00
2023-04-19T06:52:51.416Z,9.60
2023-04-19T06:53:52.401Z,10.20
2023-04-19T06:54:51.416Z,9.40
2023-04-19T06:55:51.385Z,10.60
2023-04-19T06:56:51.502Z,13.90
2023-04-19T06:57:51.467Z,10.20
2023-04-19T06:58:52.955Z,10.30
2023-04-19T06:59:51.507Z,9.50
2023-04-19T07:00:51.599Z,11.40
2023-04-19T07:01:51.612Z,10.80
2023-04-19T07:02:51.462Z,9.90
2023-04-19T07:03:51.552Z,13.10
2023-04-19T07:04:51.488Z,10.20
2023-04-19T07:05:51.395Z,10.90
2023-04-19T07:06:52.146Z,10.40
2023-04-19T07:07:51.329Z,9.80
2023-04-19T07:08:51.472Z,10.90
2023-04-19T07:09:51.855Z,11.20
2023-04-19T07:10:51.708Z,10.90
2023-04-19T07:11:51.417Z,12.10
2023-04-19T07:12:51.305Z,8.90
2023-04-19T07:13:51.359Z,7.80
2023-04-19T07:14:51.485Z,8.10
2023-04-19T07:15:51.380Z,10.10
2023-04-19T07:16:52.699Z,10.00
2023-04-19T07:17:51.305Z,9.20
2023-04-19T07:18:51.265Z,9.20
2023-04-19T07:19:51.309Z,8.90
2023-04-19T07:20:51.299Z,9.80
2023-04-19T07:21:51.254Z,8.60
2023-04-19T07:22:51.308Z,10.70
2023-04-19T07:23:51.633Z,8.10
2023-04-19T07:24:51.344Z,8.70
2023-04-19T07:25:51.135Z,8.70
2023-04-19T07:26:51.178Z,11.00
2023-04-19T07:27:52.278Z,8.90
2023-04-19T07:28:51.120Z,9.60
2023-04-19T07:29:51.071Z,9.40
2023-04-19T07:30:51.146Z,8.10
2023-04-19T07:31:51.120Z,7.30
2023-04-19T07:32:52.095Z,9.30
2023-04-19T07:33:51.099Z,8.00
2023-04-19T07:34:51.129Z,9.40
2023-04-19T07:35:51.213Z,7.60
2023-04-19T07:36:51.067Z,10.60
2023-04-19T07:37:51.025Z,7.80
2023-04-19T07:38:50.990Z,11.70
2023-04-19T07:39:51.018Z,10.00
2023-04-19T07:40:50.992Z,11.60
2023-04-19T07:41:50.969Z,10.50
2023-04-19T07:42:51.830Z,9.10
2023-04-19T07:43:50.909Z,8.40
2023-04-19T07:44:50.890Z,9.90
2023-04-19T07:45:51.920Z,8.40
2023-04-19T07:46:51.064Z,7.50
2023-04-19T07:47:50.905Z,8.60
2023-04-19T07:48:51.951Z,6.40
2023-04-19T07:49:51.280Z,9.00
2023-04-19T07:50:58.752Z,6.40
2023-04-19T07:51:50.940Z,6.00
2023-04-19T07:52:50.870Z,5.90
2023-04-19T07:53:50.820Z,5.70
2023-04-19T07:54:50.836Z,5.00
2023-04-19T07:55:50.876Z,5.30
2023-04-19T07:56:50.816Z,5.40
2023-04-19T07:57:50.790Z,4.40
2023-04-19T07:59:04.406Z,5.90
2023-04-19T07:59:52.784Z,5.40
2023-04-19T08:00:50.902Z,4.60
2023-04-19T08:01:50.895Z,4.80
2023-04-19T08:02:50.944Z,4.10
2023-04-19T08:03:51.005Z,3.00
2023-04-19T08:04:51.158Z,3.40
2023-04-19T08:05:51.000Z,4.20
2023-04-19T08:06:50.733Z,4.80
2023-04-19T08:07:50.777Z,3.30
2023-04-19T08:08:50.783Z,3.80
2023-04-19T08:09:50.889Z,3.10
2023-04-19T08:10:50.752Z,4.40
2023-04-19T08:11:50.718Z,3.90
2023-04-19T08:13:03.699Z,3.60
2023-04-19T08:14:04.419Z,4.00
2023-04-19T08:15:02.547Z,5.70
2023-04-19T08:17:51.684Z,3.70
2023-04-19T08:18:50.922Z,3.40
2023-04-19T08:19:50.566Z,3.10
2023-04-19T08:20:50.602Z,5.00
2023-04-19T08:21:50.575Z,2.40
2023-04-19T08:22:50.783Z,2.80
2023-04-19T08:23:52.624Z,4.10
2023-04-19T08:24:50.507Z,3.10
2023-04-19T08:25:50.547Z,3.50
2023-04-19T08:26:50.540Z,4.40
2023-04-19T08:27:50.589Z,2.70
2023-04-19T08:28:50.713Z,3.80
2023-04-19T08:29:50.569Z,3.70
2023-04-19T08:30:50.607Z,2.50
2023-04-19T08:31:50.572Z,3.50
2023-04-19T08:32:50.654Z,3.20
2023-04-19T08:33:50.438Z,3.20
2023-04-19T08:34:50.509Z,4.40
2023-04-19T08:35:50.490Z,3.30
2023-04-19T08:36:56.189Z,3.30
2023-04-19T08:37:52.396Z,2.20
2023-04-19T08:39:01.973Z,2.80
2023-04-19T08:39:52.445Z,4.40
2023-04-19T08:40:50.308Z,2.50
2023-04-19T08:41:59.050Z,2.00
2023-04-19T08:42:52.300Z,3.30
2023-04-19T08:43:50.296Z,1.90
2023-04-19T08:45:06.343Z,3.20
2023-04-19T08:45:52.337Z,3.80
2023-04-19T08:46:50.273Z,1.50
2023-04-19T08:47:59.806Z,5.10
2023-04-19T08:48:52.577Z,3.10
2023-04-19T08:50:03.802Z,2.80
2023-04-19T08:51:03.455Z,1.70
2023-04-19T08:51:52.353Z,2.60
2023-04-19T08:52:56.004Z,2.90
2023-04-19T08:53:52.209Z,4.20
2023-04-19T08:54:50.190Z,2.20
2023-04-19T08:56:08.844Z,3.00
2023-04-19T08:56:52.335Z,1.60
2023-04-19T08:57:50.142Z,1.70
2023-04-19T08:59:51.227Z,2.40
2023-04-19T09:00:50.174Z,3.30
2023-04-19T09:01:50.115Z,2.90
2023-04-19T09:02:50.395Z,3.10
2023-04-19T09:04:02.282Z,2.40
2023-04-19T09:04:52.446Z,2.60
2023-04-19T09:05:50.443Z,5.10
2023-04-19T09:06:50.092Z,2.70
2023-04-19T09:07:50.138Z,2.30
2023-04-19T09:08:50.008Z,3.00
2023-04-19T09:10:00.064Z,3.70
2023-04-19T09:10:51.960Z,2.50
2023-04-19T09:11:50.993Z,2.10
2023-04-19T09:12:50.066Z,4.50
2023-04-19T09:13:51.276Z,2.50
2023-04-19T09:15:01.306Z,2.30
2023-04-19T09:15:51.900Z,3.70
2023-04-19T09:16:49.934Z,3.00
2023-04-19T09:17:49.992Z,3.10
2023-04-19T09:18:59.985Z,2.70
2023-04-19T09:19:51.886Z,3.10
2023-04-19T09:20:49.957Z,2.40
2023-04-19T09:21:49.897Z,3.40
2023-04-19T09:22:49.897Z,2.90
2023-04-19T09:23:49.911Z,3.70
2023-04-19T09:26:15.202Z,1.70
2023-04-19T09:26:51.760Z,2.70
2023-04-19T09:27:49.844Z,2.50
2023-04-19T09:28:49.881Z,4.30
2023-04-19T09:29:49.939Z,2.70
2023-04-19T09:31:03.227Z,3.80
2023-04-19T09:31:52.367Z,4.20
2023-04-19T09:32:50.929Z,3.80
2023-04-19T09:33:49.839Z,3.40
2023-04-19T09:34:49.773Z,3.00
2023-04-19T09:35:49.734Z,2.60
2023-04-19T09:36:54.564Z,3.50
2023-04-19T09:38:04.718Z,2.90
2023-04-19T09:38:51.746Z,2.80
2023-04-19T09:39:49.753Z,4.80
2023-04-19T09:40:49.684Z,3.30
2023-04-19T09:41:49.664Z,2.30
2023-04-19T09:45:16.895Z,2.80
2023-04-19T09:45:51.604Z,2.60
2023-04-19T09:46:52.374Z,2.00
2023-04-19T09:47:49.609Z,4.40
2023-04-19T09:48:49.657Z,2.30
2023-04-19T09:49:49.931Z,5.00
2023-04-19T09:50:56.549Z,2.70
2023-04-19T09:51:51.545Z,1.60
2023-04-19T09:52:49.756Z,3.00
2023-04-19T09:53:49.571Z,2.80
2023-04-19T09:54:49.596Z,2.60
2023-04-19T09:56:00.412Z,3.20
2023-04-19T09:56:51.626Z,2.20
2023-04-19T09:57:49.576Z,3.70
2023-04-19T09:58:52.814Z,2.90
2023-04-19T09:59:51.501Z,1.70
2023-04-19T10:00:53.089Z,3.10
2023-04-19T10:01:51.604Z,2.30
2023-04-19T10:02:51.950Z,2.40
2023-04-19T10:03:51.578Z,3.20
2023-04-19T10:05:03.264Z,2.10
2023-04-19T10:05:51.521Z,1.80
2023-04-19T10:07:13.925Z,2.40
2023-04-19T10:07:51.462Z,3.40
2023-04-19T10:08:49.480Z,3.50
2023-04-19T10:09:53.612Z,3.20
2023-04-19T10:10:51.485Z,2.40
2023-04-19T10:11:51.213Z,3.80
2023-04-19T10:13:07.411Z,2.20
2023-04-19T10:13:51.400Z,2.40
2023-04-19T10:14:49.478Z,2.40
2023-04-19T10:15:52.747Z,2.30
2023-04-19T10:16:51.378Z,2.30
2023-04-19T10:17:49.389Z,2.10
2023-04-19T10:18:49.300Z,2.30
2023-04-19T10:19:49.335Z,2.80
2023-04-19T10:20:49.340Z,5.90
2023-04-19T10:21:49.324Z,4.00
2023-04-19T10:22:49.403Z,2.00
2023-04-19T10:23:49.336Z,2.60
2023-04-19T10:24:49.406Z,3.90
2023-04-19T10:25:50.056Z,2.60
2023-04-19T10:26:49.316Z,2.50
2023-04-19T10:27:49.277Z,2.20
2023-04-19T10:28:49.344Z,2.60
2023-04-19T10:29:49.184Z,3.20
2023-04-19T10:30:49.256Z,3.40
2023-04-19T10:31:49.233Z,2.70
2023-04-19T10:32:49.236Z,2.00
2023-04-19T10:33:49.255Z,2.50
2023-04-19T10:34:49.231Z,1.70
2023-04-19T10:35:49.292Z,2.90
2023-04-19T10:36:49.197Z,2.40
2023-04-19T10:37:49.123Z,5.30
2023-04-19T10:38:49.134Z,3.80
2023-04-19T10:39:49.159Z,3.00
2023-04-19T10:40:49.152Z,3.30
2023-04-19T10:41:49.102Z,1.70
2023-04-19T10:42:49.053Z,3.70
2023-04-19T10:43:49.039Z,3.20
2023-04-19T10:44:49.052Z,2.10
2023-04-19T10:45:49.052Z,2.20
2023-04-19T10:46:48.960Z,2.70
2023-04-19T10:47:48.996Z,2.30
2023-04-19T10:48:48.990Z,2.20
2023-04-19T10:49:48.972Z,2.80
2023-04-19T10:50:48.971Z,1.50
2023-04-19T10:51:49.006Z,2.60
2023-04-19T10:52:48.950Z,3.70
2023-04-19T10:53:49.015Z,2.10
2023-04-19T10:54:48.913Z,2.40
2023-04-19T10:55:48.963Z,2.70
2023-04-19T10:56:48.960Z,2.00
2023-04-19T10:57:48.877Z,4.40
2023-04-19T10:58:48.976Z,2.50
2023-04-19T10:59:48.846Z,1.80
2023-04-19T11:00:48.823Z,1.80
2023-04-19T11:01:48.879Z,2.50
2023-04-19T11:02:48.939Z,2.10
2023-04-19T11:03:48.965Z,2.00
2023-04-19T11:04:48.894Z,3.20
2023-04-19T11:05:48.767Z,2.00
2023-04-19T11:06:48.775Z,1.80
2023-04-19T11:07:48.766Z,1.70
2023-04-19T11:08:48.734Z,1.90
2023-04-19T11:09:48.755Z,1.90
2023-04-19T11:10:48.751Z,2.50
2023-04-19T11:11:48.771Z,2.30
2023-04-19T11:12:48.736Z,2.10
2023-04-19T11:13:48.768Z,1.50
2023-04-19T11:14:48.742Z,2.50
2023-04-19T11:15:48.746Z,2.70
2023-04-19T11:16:48.801Z,3.80
2023-04-19T11:17:52.871Z,2.10
2023-04-19T11:18:49.643Z,2.00
2023-04-19T11:19:48.677Z,3.40
2023-04-19T11:20:48.673Z,3.90
2023-04-19T11:21:48.718Z,3.60
2023-04-19T11:22:48.630Z,2.00
2023-04-19T11:23:49.127Z,1.90
2023-04-19T11:24:48.578Z,3.10
2023-04-19T11:25:48.592Z,2.90
2023-04-19T11:26:48.659Z,3.20
2023-04-19T11:27:48.560Z,3.20
2023-04-19T11:28:48.654Z,3.30
2023-04-19T11:29:48.566Z,2.90
2023-04-19T11:30:48.556Z,2.30
2023-04-19T11:31:48.618Z,3.60
2023-04-19T11:32:48.801Z,3.20
2023-04-19T11:33:48.512Z,2.80
2023-04-19T11:34:48.468Z,3.00
2023-04-19T11:35:48.485Z,2.30
2023-04-19T11:36:48.467Z,2.50
2023-04-19T11:37:48.444Z,3.10
2023-04-19T11:38:48.428Z,2.30
2023-04-19T11:39:48.432Z,3.40
2023-04-19T11:40:48.426Z,4.20
2023-04-19T11:41:48.421Z,2.00
2023-04-19T11:42:48.389Z,2.80
2023-04-19T11:43:48.433Z,2.70
2023-04-19T11:45:03.502Z,2.40
2023-04-19T11:45:48.372Z,3.00
2023-04-19T11:46:48.402Z,3.40
2023-04-19T11:47:48.393Z,2.80
2023-04-19T11:48:48.375Z,3.70
2023-04-19T11:51:14.382Z,1.70
2023-04-19T11:52:14.398Z,3.10
2023-04-19T11:53:14.374Z,3.80
2023-04-19T11:54:14.534Z,2.40
2023-04-19T11:55:14.363Z,3.50
2023-04-19T11:56:14.363Z,2.40
2023-04-19T11:57:14.345Z,2.60
2023-04-19T11:58:14.341Z,2.00
2023-04-19T11:59:14.306Z,3.00
2023-04-19T12:00:14.312Z,3.00
2023-04-19T12:01:14.283Z,2.40
2023-04-19T12:02:14.597Z,3.60
2023-04-19T12:03:14.476Z,4.50
2023-04-19T12:04:14.648Z,3.10
2023-04-19T12:05:14.553Z,3.00
2023-04-19T12:06:14.265Z,2.60
2023-04-19T12:07:14.396Z,4.00
2023-04-19T12:08:14.248Z,2.20
2023-04-19T12:09:14.203Z,3.20
2023-04-19T12:10:14.204Z,3.30
2023-04-19T12:11:14.203Z,3.60
2023-04-19T12:12:14.199Z,3.70
2023-04-19T12:13:14.170Z,3.30
2023-04-19T12:14:14.829Z,4.00
2023-04-19T12:15:15.849Z,3.00
2023-04-19T12:16:14.287Z,2.50
2023-04-19T12:17:14.179Z,3.20
2023-04-19T12:18:14.505Z,3.70
2023-04-19T12:19:14.310Z,4.70
2023-04-19T12:20:14.098Z,6.40
2023-04-19T12:21:14.078Z,4.30
2023-04-19T12:22:14.127Z,2.50
2023-04-19T12:23:14.155Z,3.70
2023-04-19T12:24:21.022Z,4.60
2023-04-19T12:25:14.074Z,2.50
2023-04-19T12:26:14.059Z,2.90
2023-04-19T12:27:15.831Z,3.50
2023-04-19T12:28:14.014Z,3.50
2023-04-19T12:29:14.136Z,4.30
2023-04-19T12:30:14.016Z,3.70
2023-04-19T12:31:13.988Z,2.80
2023-04-19T12:32:14.169Z,4.10
2023-04-19T12:33:13.999Z,3.10
2023-04-19T12:34:13.967Z,5.10
2023-04-19T12:35:13.947Z,2.70
2023-04-19T12:36:13.911Z,3.10
2023-04-19T12:37:13.930Z,3.90
2023-04-19T12:38:13.927Z,4.70
2023-04-19T12:39:14.028Z,3.60
2023-04-19T12:40:13.918Z,4.30
2023-04-19T12:41:13.887Z,4.10
2023-04-19T12:42:13.846Z,4.20
2023-04-19T12:43:13.877Z,2.80
2023-04-19T12:44:13.833Z,3.20
2023-04-19T12:45:13.819Z,4.40
2023-04-19T12:46:13.839Z,3.10
2023-04-19T12:47:13.792Z,3.90
2023-04-19T12:48:13.973Z,5.10
2023-04-19T12:49:14.095Z,2.20
2023-04-19T12:50:13.819Z,4.20
2023-04-19T12:51:13.760Z,3.40
2023-04-19T12:52:13.794Z,2.90
2023-04-19T12:53:13.766Z,3.80
2023-04-19T12:54:13.748Z,2.80
2023-04-19T12:55:13.713Z,2.30
2023-04-19T12:56:13.696Z,4.20
2023-04-19T12:57:13.693Z,3.30
2023-04-19T12:58:13.689Z,4.70
2023-04-19T12:59:14.238Z,3.00
2023-04-19T13:00:13.690Z,3.40
2023-04-19T13:01:13.974Z,4.30
2023-04-19T13:02:37.835Z,3.10
2023-04-19T13:03:13.751Z,3.60
2023-04-19T13:04:13.762Z,2.80
2023-04-19T13:05:13.614Z,4.10
2023-04-19T13:06:13.629Z,3.50
2023-04-19T13:07:13.626Z,2.90
2023-04-19T13:08:13.635Z,2.70
2023-04-19T13:09:15.038Z,3.00
2023-04-19T13:10:13.592Z,2.00
2023-04-19T13:11:13.545Z,2.80
2023-04-19T13:12:13.538Z,2.20
2023-04-19T13:13:13.552Z,4.10
2023-04-19T13:14:13.565Z,3.00
2023-04-19T13:15:13.512Z,2.50
2023-04-19T13:16:13.566Z,2.10
2023-04-19T13:17:13.484Z,2.90
2023-04-19T13:18:13.492Z,3.20
2023-04-19T13:19:13.489Z,3.20